createdAt,value
2022-08-19T00:01:53.039Z,15.63
2022-08-19T00:04:23.245Z,15.48
2022-08-19T00:06:51.575Z,15.15
2022-08-19T00:09:21.642Z,15.85
2022-08-19T00:11:51.674Z,15.00
2022-08-19T00:14:20.642Z,14.95
2022-08-19T00:16:49.703Z,14.85
2022-08-19T00:19:18.760Z,14.20
2022-08-19T00:21:47.184Z,14.60
2022-08-19T00:24:16.419Z,15.02
2022-08-19T00:26:45.652Z,13.98
2022-08-19T00:29:16.289Z,15.60
2022-08-19T00:31:44.819Z,15.45
2022-08-19T00:34:13.574Z,13.95
2022-08-19T00:36:42.356Z,14.43
2022-08-19T00:39:10.645Z,13.98
2022-08-19T00:41:39.121Z,14.30
2022-08-19T00:44:08.808Z,14.38
2022-08-19T00:46:39.866Z,14.65
2022-08-19T00:49:12.018Z,15.13
2022-08-19T00:51:40.329Z,14.68
2022-08-19T00:54:10.074Z,14.65
2022-08-19T00:56:38.910Z,14.95
2022-08-19T00:59:10.487Z,14.65
2022-08-19T01:01:40.432Z,15.80
2022-08-19T01:04:08.885Z,15.77
2022-08-19T01:06:38.320Z,14.57
2022-08-19T01:09:07.102Z,15.88
2022-08-19T01:11:37.177Z,13.85
2022-08-19T01:14:05.886Z,14.57
2022-08-19T01:16:35.176Z,14.15
2022-08-19T01:19:05.211Z,14.50
2022-08-19T01:21:35.267Z,14.00
2022-08-19T01:24:05.127Z,14.10
2022-08-19T01:26:33.479Z,14.70
2022-08-19T01:29:05.241Z,14.43
2022-08-19T01:31:33.694Z,14.68
2022-08-19T01:34:02.198Z,14.63
2022-08-19T01:36:32.907Z,13.50
2022-08-19T01:39:01.850Z,15.15
2022-08-19T01:41:31.574Z,13.90
2022-08-19T01:44:13.233Z,14.52
2022-08-19T01:46:48.153Z,14.52
2022-08-19T01:49:17.172Z,14.65
2022-08-19T01:51:45.501Z,15.20
2022-08-19T01:54:26.977Z,15.02
2022-08-19T01:56:58.589Z,14.32
2022-08-19T01:59:27.006Z,14.35
2022-08-19T02:01:55.463Z,13.85
2022-08-19T02:04:24.390Z,14.13
2022-08-19T02:06:52.709Z,14.38
2022-08-19T02:09:21.028Z,14.80
2022-08-19T02:11:49.347Z,15.90
2022-08-19T02:14:19.481Z,14.60
2022-08-19T02:16:47.833Z,15.52
2022-08-19T02:19:16.145Z,16.10
2022-08-19T02:21:44.604Z,15.52
2022-08-19T02:24:13.235Z,14.95
2022-08-19T02:26:41.804Z,15.23
2022-08-19T02:29:10.248Z,15.25
2022-08-19T02:31:39.947Z,15.13
2022-08-19T02:34:08.248Z,15.07
2022-08-19T02:36:36.705Z,15.63
2022-08-19T02:39:10.195Z,14.27
2022-08-19T02:41:38.835Z,14.93
2022-08-19T02:44:29.408Z,15.73
2022-08-19T02:46:57.450Z,14.85
2022-08-19T02:49:25.741Z,15.25
2022-08-19T02:51:55.385Z,15.50
2022-08-19T02:54:23.733Z,15.13
2022-08-19T02:56:52.447Z,15.32
2022-08-19T02:59:22.850Z,15.10
2022-08-19T03:01:51.624Z,14.55
2022-08-19T03:04:21.687Z,15.50
2022-08-19T03:06:50.811Z,15.48
2022-08-19T03:09:20.564Z,15.50
2022-08-19T03:11:52.050Z,15.73
2022-08-19T03:14:21.110Z,14.98
2022-08-19T03:16:50.812Z,14.93
2022-08-19T03:19:19.865Z,16.17
2022-08-19T03:21:50.024Z,14.73
2022-08-19T03:24:19.725Z,14.40
2022-08-19T03:26:49.696Z,14.23
2022-08-19T03:29:30.449Z,16.55
2022-08-19T03:32:01.722Z,15.60
2022-08-19T03:34:31.221Z,16.35
2022-08-19T03:37:02.266Z,15.45
2022-08-19T03:39:31.156Z,15.70
2022-08-19T03:42:32.841Z,16.55
2022-08-19T03:44:49.251Z,16.52
2022-08-19T03:47:17.982Z,15.00
2022-08-19T03:49:47.326Z,15.85
2022-08-19T03:52:17.058Z,17.40
2022-08-19T03:54:45.947Z,16.38
2022-08-19T03:57:14.267Z,15.57
2022-08-19T03:59:42.677Z,16.60
2022-08-19T04:02:12.504Z,15.82
2022-08-19T04:04:41.428Z,16.08
2022-08-19T04:07:10.393Z,15.43
2022-08-19T04:09:40.234Z,16.33
2022-08-19T04:12:08.810Z,15.25
2022-08-19T04:14:37.579Z,14.82
2022-08-19T04:17:06.715Z,15.98
2022-08-19T04:19:35.220Z,15.48
2022-08-19T04:22:03.497Z,14.70
2022-08-19T04:24:31.861Z,14.90
2022-08-19T04:27:03.688Z,15.48
2022-08-19T04:29:32.173Z,14.93
2022-08-19T04:32:09.445Z,15.27
2022-08-19T04:35:01.384Z,16.10
2022-08-19T04:37:27.467Z,14.85
2022-08-19T04:40:29.168Z,15.52
2022-08-19T04:42:59.361Z,15.68
2022-08-19T04:45:27.662Z,16.27
2022-08-19T04:48:26.645Z,15.05
2022-08-19T04:50:46.626Z,14.00
2022-08-19T04:53:14.960Z,14.82
2022-08-19T04:55:44.207Z,15.73
2022-08-19T04:58:13.891Z,14.98
2022-08-19T05:00:43.073Z,15.95
2022-08-19T05:03:11.373Z,14.77
2022-08-19T05:05:44.516Z,15.48
2022-08-19T05:08:14.198Z,14.95
2022-08-19T05:10:43.814Z,15.13
2022-08-19T05:13:12.207Z,15.10
2022-08-19T05:15:41.879Z,15.20
2022-08-19T05:18:28.343Z,15.52
2022-08-19T05:21:14.358Z,16.38
2022-08-19T05:23:42.832Z,15.05
2022-08-19T05:26:12.007Z,15.43
2022-08-19T05:28:40.333Z,15.38
2022-08-19T05:31:09.959Z,16.23
2022-08-19T05:33:38.471Z,15.13
2022-08-19T05:36:08.296Z,14.93
2022-08-19T05:38:37.389Z,16.38
2022-08-19T05:41:09.429Z,15.43
2022-08-19T05:43:38.445Z,15.52
2022-08-19T05:46:07.062Z,15.35
2022-08-19T05:48:36.784Z,14.45
2022-08-19T05:51:07.146Z,14.50
2022-08-19T05:53:35.604Z,14.13
2022-08-19T05:56:06.575Z,14.40
2022-08-19T05:58:34.994Z,13.77
2022-08-19T06:01:06.377Z,13.68
2022-08-19T06:03:35.630Z,14.15
2022-08-19T06:06:05.306Z,13.35
2022-08-19T06:08:35.064Z,13.35
2022-08-19T06:11:17.098Z,13.18
2022-08-19T06:13:46.094Z,13.45
2022-08-19T06:16:14.592Z,13.43
2022-08-19T06:18:45.126Z,13.15
2022-08-19T06:21:15.113Z,12.13
2022-08-19T06:23:44.038Z,12.63
2022-08-19T06:26:14.502Z,12.50
2022-08-19T06:28:44.197Z,12.32
2022-08-19T06:31:14.975Z,12.80
2022-08-19T06:33:43.519Z,11.45
2022-08-19T06:36:20.158Z,12.30
2022-08-19T06:38:48.433Z,11.00
2022-08-19T06:41:16.775Z,12.18
2022-08-19T06:43:45.066Z,11.95
2022-08-19T06:46:15.149Z,11.45
2022-08-19T06:48:45.386Z,12.50
2022-08-19T06:51:16.634Z,10.43
2022-08-19T06:56:24.136Z,11.55
2022-08-19T06:58:53.866Z,11.13
2022-08-19T07:01:23.442Z,11.55
2022-08-19T07:03:51.722Z,11.73
2022-08-19T07:09:12.931Z,11.75
2022-08-19T07:11:41.788Z,11.70
2022-08-19T07:14:19.005Z,11.75
2022-08-19T07:16:48.924Z,10.63
2022-08-19T07:19:18.748Z,11.60
2022-08-19T07:21:48.245Z,11.68
2022-08-19T07:24:18.422Z,11.50
2022-08-19T07:26:46.829Z,12.23
2022-08-19T07:29:20.463Z,11.48
2022-08-19T07:31:52.796Z,11.37
2022-08-19T07:34:22.674Z,12.45
2022-08-19T07:36:50.982Z,12.48
2022-08-19T07:39:21.886Z,10.98
2022-08-19T07:41:51.385Z,12.40
2022-08-19T07:44:21.494Z,12.60
2022-08-19T07:46:53.229Z,12.18
2022-08-19T07:49:22.377Z,11.43
2022-08-19T07:51:51.640Z,12.52
2022-08-19T07:54:22.340Z,11.70
2022-08-19T07:56:52.510Z,11.85
2022-08-19T07:59:21.551Z,12.63
2022-08-19T08:01:51.136Z,11.57
2022-08-19T08:04:37.722Z,12.10
2022-08-19T08:07:23.623Z,11.63
2022-08-19T08:12:36.726Z,11.65
2022-08-19T08:15:12.614Z,11.77
2022-08-19T08:17:49.086Z,11.85
2022-08-19T08:20:20.121Z,12.55
2022-08-19T08:23:07.130Z,11.68
2022-08-19T08:25:37.507Z,11.48
2022-08-19T08:28:06.503Z,11.68
2022-08-19T08:30:36.926Z,12.18
2022-08-19T08:33:05.574Z,12.35
2022-08-19T08:35:34.475Z,12.48
2022-08-19T08:38:04.646Z,11.98
2022-08-19T08:40:36.208Z,11.95
2022-08-19T08:43:11.153Z,11.70
2022-08-19T08:45:44.623Z,12.55
2022-08-19T08:48:24.323Z,12.40
2022-08-19T08:50:53.737Z,12.15
2022-08-19T08:53:29.249Z,12.57
2022-08-19T08:55:58.925Z,12.60
2022-08-19T08:58:31.783Z,12.50
2022-08-19T09:01:00.249Z,12.77
2022-08-19T09:03:31.641Z,13.55
2022-08-19T09:06:03.142Z,12.68
2022-08-19T09:08:38.608Z,13.93
2022-08-19T09:11:09.411Z,14.15
2022-08-19T09:13:45.683Z,14.48
2022-08-19T09:16:16.600Z,14.70
2022-08-19T09:18:46.986Z,14.60
2022-08-19T09:21:16.050Z,13.90
2022-08-19T09:23:45.528Z,14.50
2022-08-19T09:26:16.492Z,14.15
2022-08-19T09:28:48.381Z,14.90
2022-08-19T09:31:18.717Z,14.68
2022-08-19T09:33:47.050Z,15.85
2022-08-19T09:36:21.824Z,15.75
2022-08-19T09:39:03.282Z,15.48
2022-08-19T09:41:31.627Z,15.90
2022-08-19T09:44:01.599Z,15.05
2022-08-19T09:46:32.052Z,15.23
2022-08-19T09:49:02.954Z,15.25
2022-08-19T09:51:35.069Z,15.70
2022-08-19T09:54:04.821Z,14.23
2022-08-19T09:56:34.316Z,14.85
2022-08-19T09:59:05.029Z,15.32
2022-08-19T10:01:34.107Z,14.98
2022-08-19T10:04:09.386Z,15.85
2022-08-19T10:06:48.571Z,14.48
2022-08-19T10:09:26.444Z,13.80
2022-08-19T10:12:02.892Z,13.20
2022-08-19T10:14:33.176Z,12.38
2022-08-19T10:17:17.587Z,12.80
2022-08-19T10:19:53.822Z,12.07
2022-08-19T10:22:25.588Z,11.45
2022-08-19T10:24:54.463Z,11.63
2022-08-19T10:27:22.998Z,11.98
2022-08-19T10:29:52.683Z,11.73
2022-08-19T10:32:33.657Z,12.25
2022-08-19T10:35:02.944Z,11.75
2022-08-19T10:37:34.642Z,12.20
2022-08-19T10:40:04.166Z,12.10
2022-08-19T10:42:32.547Z,12.57
2022-08-19T10:45:02.242Z,12.55
2022-08-19T10:47:33.295Z,13.05
2022-08-19T10:50:19.019Z,13.10
2022-08-19T10:52:49.689Z,12.70
2022-08-19T10:55:37.396Z,12.52
2022-08-19T10:58:06.049Z,13.82
2022-08-19T11:00:36.294Z,12.52
2022-08-19T11:03:05.838Z,12.15
2022-08-19T11:05:39.882Z,12.20
2022-08-19T11:08:18.115Z,12.45
2022-08-19T11:10:52.563Z,12.43
2022-08-19T11:13:20.891Z,13.70
2022-08-19T11:15:50.576Z,13.20
2022-08-19T11:18:18.963Z,13.00
2022-08-19T11:20:47.270Z,12.32
2022-08-19T11:23:15.588Z,12.85
2022-08-19T11:25:43.897Z,12.15
2022-08-19T11:28:12.182Z,13.35
2022-08-19T11:30:40.562Z,13.30
2022-08-19T11:33:11.885Z,13.73
2022-08-19T11:35:42.419Z,12.90
2022-08-19T11:38:10.716Z,13.25
2022-08-19T11:40:39.001Z,12.25
2022-08-19T11:43:07.296Z,12.52
2022-08-19T11:45:35.594Z,12.82
2022-08-19T11:48:04.177Z,12.30
2022-08-19T11:50:33.794Z,13.63
2022-08-19T11:53:02.106Z,12.88
2022-08-19T11:55:30.382Z,12.52
2022-08-19T11:57:58.863Z,12.93
2022-08-19T12:00:28.152Z,13.90
2022-08-19T12:02:56.792Z,13.70
2022-08-19T12:05:25.076Z,12.55
2022-08-19T12:07:55.487Z,12.43
2022-08-19T12:10:26.379Z,12.52
2022-08-19T12:12:58.661Z,12.63
2022-08-19T12:15:28.815Z,13.07
2022-08-19T12:18:05.219Z,12.32
2022-08-19T12:20:35.520Z,12.90
2022-08-19T12:23:06.148Z,13.35
2022-08-19T12:25:35.431Z,12.40
2022-08-19T12:28:04.313Z,11.43
2022-08-19T12:30:32.990Z,12.25
2022-08-19T12:33:01.306Z,10.85
2022-08-19T12:35:31.466Z,11.57
2022-08-19T12:38:00.025Z,13.35
2022-08-19T12:40:30.036Z,13.98
2022-08-19T12:42:58.384Z,13.93
2022-08-19T12:45:28.293Z,14.15
2022-08-19T12:47:56.792Z,13.77
2022-08-19T12:50:25.282Z,14.65
2022-08-19T12:52:53.858Z,14.57
2022-08-19T12:55:22.275Z,14.15
2022-08-19T12:57:51.919Z,13.85
2022-08-19T13:00:22.042Z,13.75
2022-08-19T13:02:51.467Z,14.75
2022-08-19T13:05:21.913Z,14.50
2022-08-19T13:07:50.273Z,13.88
2022-08-19T13:10:20.581Z,13.57
2022-08-19T13:12:49.885Z,12.57
2022-08-19T13:15:23.746Z,12.88
2022-08-19T13:17:53.826Z,13.50
2022-08-19T13:20:23.383Z,13.43
2022-08-19T13:22:52.327Z,12.85
2022-08-19T13:25:20.971Z,13.07
2022-08-19T13:27:50.132Z,12.68
2022-08-19T13:30:38.804Z,12.63
2022-08-19T13:33:16.002Z,13.85
2022-08-19T13:35:48.136Z,12.45
2022-08-19T13:38:17.395Z,12.43
2022-08-19T13:40:45.972Z,12.85
2022-08-19T13:43:22.851Z,11.63
2022-08-19T13:45:54.820Z,12.05
2022-08-19T13:48:24.765Z,12.23
2022-08-19T13:50:53.122Z,12.70
2022-08-19T13:53:21.426Z,13.15
2022-08-19T13:55:51.443Z,12.40
2022-08-19T13:58:19.758Z,12.15
2022-08-19T14:00:49.490Z,12.70
2022-08-19T14:03:19.136Z,12.57
2022-08-19T14:05:48.047Z,12.07
2022-08-19T14:08:16.372Z,11.32
2022-08-19T14:10:45.517Z,11.82
2022-08-19T14:13:15.909Z,11.68
2022-08-19T14:15:44.262Z,8.68
2022-08-19T14:18:12.799Z,8.70
2022-08-19T14:20:42.718Z,8.52
2022-08-19T14:23:11.707Z,7.72
2022-08-19T14:25:40.013Z,8.32
2022-08-19T14:28:08.764Z,7.95
2022-08-19T14:30:38.765Z,7.45
2022-08-19T14:33:08.045Z,6.90
2022-08-19T14:35:37.227Z,6.57
2022-08-19T14:38:08.161Z,5.45
2022-08-19T14:40:36.514Z,4.75
2022-08-19T14:43:06.102Z,4.50
2022-08-19T14:45:34.995Z,4.43
2022-08-19T14:48:05.472Z,5.15
2022-08-19T14:50:35.960Z,4.88
2022-08-19T14:53:09.044Z,5.13
2022-08-19T14:55:44.887Z,5.07
2022-08-19T14:58:29.405Z,4.85
2022-08-19T15:00:58.953Z,3.67
2022-08-19T15:03:27.266Z,4.25
2022-08-19T15:05:56.509Z,3.60
2022-08-19T15:08:25.788Z,3.70
2022-08-19T15:10:55.969Z,3.83
2022-08-19T15:13:25.577Z,4.07
2022-08-19T15:15:53.930Z,3.80
2022-08-19T15:18:22.694Z,3.22
2022-08-19T15:20:51.931Z,3.40
2022-08-19T15:23:21.721Z,3.67
2022-08-19T15:25:53.000Z,4.07
2022-08-19T15:28:22.683Z,3.45
2022-08-19T15:30:52.288Z,3.92
2022-08-19T15:33:21.179Z,3.67
2022-08-19T15:35:51.548Z,3.70
2022-08-19T15:38:22.342Z,4.07
2022-08-19T15:40:51.765Z,3.72
2022-08-19T15:43:21.270Z,4.13
2022-08-19T15:45:51.041Z,4.03
2022-08-19T15:48:19.361Z,4.50
2022-08-19T15:50:47.660Z,4.65
2022-08-19T15:53:15.939Z,4.38
2022-08-19T15:55:45.331Z,3.92
2022-08-19T15:58:32.283Z,3.88
2022-08-19T16:01:21.302Z,4.05
2022-08-19T16:04:13.957Z,4.50
2022-08-19T16:06:44.717Z,5.03
2022-08-19T16:09:13.159Z,4.97
2022-08-19T16:11:45.555Z,7.03
2022-08-19T16:14:14.439Z,7.40
2022-08-19T16:16:47.210Z,8.30
2022-08-19T16:19:16.593Z,8.35
2022-08-19T16:21:45.484Z,7.82
2022-08-19T16:24:14.581Z,7.60
2022-08-19T16:26:43.559Z,7.65
2022-08-19T16:29:13.079Z,6.95
2022-08-19T16:31:43.507Z,8.10
2022-08-19T16:34:14.243Z,7.35
2022-08-19T16:36:43.527Z,8.35
2022-08-19T16:39:12.971Z,7.85
2022-08-19T16:41:41.720Z,7.82
2022-08-19T16:44:11.368Z,7.78
2022-08-19T16:46:42.564Z,7.88
2022-08-19T16:49:11.546Z,7.47
2022-08-19T16:51:41.458Z,8.30
2022-08-19T16:54:09.796Z,7.10
2022-08-19T16:56:38.267Z,7.18
2022-08-19T16:59:06.577Z,6.78
2022-08-19T17:01:34.968Z,6.95
2022-08-19T17:04:03.649Z,6.97
2022-08-19T17:06:32.664Z,6.57
2022-08-19T17:09:03.182Z,6.72
2022-08-19T17:11:33.734Z,6.10
2022-08-19T17:14:02.563Z,6.20
2022-08-19T17:16:32.350Z,6.47
2022-08-19T17:19:01.771Z,6.00
2022-08-19T17:21:32.048Z,5.47
2022-08-19T17:24:02.300Z,5.63
2022-08-19T17:26:31.089Z,5.45
2022-08-19T17:29:00.225Z,5.35
2022-08-19T17:31:29.994Z,5.18
2022-08-19T17:33:58.874Z,5.50
2022-08-19T17:36:28.125Z,5.28
2022-08-19T17:38:56.705Z,4.75
2022-08-19T17:41:27.444Z,5.38
2022-08-19T17:43:55.982Z,5.30
2022-08-19T17:46:24.263Z,5.10
2022-08-19T17:48:55.131Z,5.10
2022-08-19T17:51:24.609Z,5.38
2022-08-19T17:53:54.460Z,4.80
2022-08-19T17:56:23.927Z,4.88
2022-08-19T17:59:00.641Z,5.30
2022-08-19T18:01:40.272Z,5.18
2022-08-19T18:04:19.742Z,5.47
2022-08-19T18:06:53.143Z,5.70
2022-08-19T18:09:23.838Z,5.28
2022-08-19T18:11:53.404Z,5.53
2022-08-19T18:14:32.960Z,5.93
2022-08-19T18:17:05.527Z,6.13
2022-08-19T18:19:42.296Z,5.30
2022-08-19T18:22:12.326Z,5.80
2022-08-19T18:24:40.876Z,5.60
2022-08-19T18:27:10.111Z,5.88
2022-08-19T18:29:40.274Z,5.50
2022-08-19T18:32:13.315Z,5.90
2022-08-19T18:34:42.046Z,5.97
2022-08-19T18:37:10.450Z,6.97
2022-08-19T18:39:56.323Z,6.05
2022-08-19T18:42:42.245Z,6.38
2022-08-19T18:45:29.997Z,6.00
2022-08-19T18:48:25.763Z,7.18
2022-08-19T18:50:56.491Z,6.38
2022-08-19T18:53:24.827Z,6.30
2022-08-19T18:55:54.001Z,6.53
2022-08-19T18:58:26.102Z,6.35
2022-08-19T19:00:57.692Z,6.87
2022-08-19T19:03:26.808Z,6.32
2022-08-19T19:05:55.315Z,6.43
2022-08-19T19:08:27.094Z,6.25
2022-08-19T19:10:56.790Z,6.32
2022-08-19T19:13:25.151Z,6.13
2022-08-19T19:15:54.471Z,6.25
2022-08-19T19:18:25.161Z,5.72
2022-08-19T19:20:53.476Z,5.65
2022-08-19T19:23:22.522Z,6.22
2022-08-19T19:25:52.285Z,5.53
2022-08-19T19:28:25.704Z,5.30
2022-08-19T19:33:23.893Z,6.45
2022-08-19T19:35:52.200Z,6.25
2022-08-19T19:38:20.530Z,6.53
2022-08-19T19:40:48.871Z,7.07
2022-08-19T19:43:18.250Z,7.15
2022-08-19T19:45:48.291Z,7.75
2022-08-19T19:48:16.787Z,7.57
2022-08-19T19:50:54.178Z,8.27
2022-08-19T19:53:24.866Z,8.10
2022-08-19T19:55:57.636Z,8.70
2022-08-19T19:58:28.661Z,9.55
2022-08-19T20:00:57.687Z,9.70
2022-08-19T20:03:26.100Z,9.77
2022-08-19T20:05:58.204Z,9.48
2022-08-19T20:08:44.211Z,9.50
2022-08-19T20:11:17.560Z,10.55
2022-08-19T20:13:45.868Z,10.18
2022-08-19T20:16:14.151Z,9.50
2022-08-19T20:18:43.990Z,9.40
2022-08-19T20:21:13.784Z,11.10
2022-08-19T20:23:42.110Z,10.18
2022-08-19T20:26:32.073Z,9.63
2022-08-19T20:29:11.227Z,10.25
2022-08-19T20:31:57.710Z,9.82
2022-08-19T20:34:27.803Z,9.38
2022-08-19T20:36:57.525Z,9.52
2022-08-19T20:39:25.843Z,9.52
2022-08-19T20:41:56.282Z,9.05
2022-08-19T20:44:24.824Z,9.02
2022-08-19T20:46:54.842Z,8.70
2022-08-19T20:49:27.136Z,8.07
2022-08-19T20:51:57.873Z,8.80
2022-08-19T20:54:26.951Z,8.77
2022-08-19T20:56:55.655Z,8.82
2022-08-19T20:59:24.089Z,8.60
2022-08-19T21:01:52.771Z,8.07
2022-08-19T21:04:21.886Z,7.90
2022-08-19T21:06:50.241Z,8.10
2022-08-19T21:09:20.460Z,8.13
2022-08-19T21:11:49.144Z,8.38
2022-08-19T21:14:19.524Z,8.70
2022-08-19T21:16:47.866Z,7.55
2022-08-19T21:19:19.878Z,8.10
2022-08-19T21:21:50.534Z,8.55
2022-08-19T21:24:20.208Z,9.77
2022-08-19T21:26:51.337Z,9.88
2022-08-19T21:29:20.031Z,9.05
2022-08-19T21:31:49.027Z,8.43
2022-08-19T21:34:18.536Z,8.48
2022-08-19T21:36:47.158Z,7.72
2022-08-19T21:39:15.485Z,7.85
2022-08-19T21:41:45.153Z,7.60
2022-08-19T21:44:13.477Z,7.88
2022-08-19T21:46:41.806Z,7.35
2022-08-19T21:49:10.099Z,7.90
2022-08-19T21:51:38.409Z,7.95
2022-08-19T21:54:06.752Z,7.40
2022-08-19T21:56:35.093Z,8.45
2022-08-19T21:59:04.785Z,8.73
2022-08-19T22:01:33.069Z,7.47
2022-08-19T22:04:01.442Z,7.85
2022-08-19T22:06:29.740Z,8.02
2022-08-19T22:08:58.039Z,7.75
2022-08-19T22:11:26.871Z,7.00
2022-08-19T22:13:56.599Z,7.25
2022-08-19T22:16:26.376Z,6.97
2022-08-19T22:18:54.826Z,7.75
2022-08-19T22:21:39.950Z,7.68
2022-08-19T22:24:09.614Z,7.78
2022-08-19T22:26:37.908Z,7.68
2022-08-19T22:29:07.571Z,7.20
2022-08-19T22:31:37.712Z,6.43
2022-08-19T22:34:06.704Z,6.65
2022-08-19T22:36:35.462Z,7.20
2022-08-19T22:39:04.069Z,6.97
2022-08-19T22:41:33.583Z,7.78
2022-08-19T22:44:02.062Z,7.03
2022-08-19T22:46:34.239Z,7.18
2022-08-19T22:49:03.903Z,7.47
2022-08-19T22:51:50.133Z,7.18
2022-08-19T22:54:18.596Z,7.43
2022-08-19T22:56:47.055Z,8.23
2022-08-19T22:59:15.335Z,7.38
2022-08-19T23:01:43.629Z,7.95
2022-08-19T23:04:13.302Z,7.18
2022-08-19T23:06:42.356Z,7.40
2022-08-19T23:09:11.407Z,7.45
2022-08-19T23:11:45.975Z,7.25
2022-08-19T23:14:14.784Z,8.05
2022-08-19T23:16:50.522Z,7.13
2022-08-19T23:19:20.865Z,7.50
2022-08-19T23:21:49.329Z,6.90
2022-08-19T23:24:17.651Z,8.05
2022-08-19T23:26:59.952Z,7.90
2022-08-19T23:29:45.832Z,7.60
2022-08-19T23:32:16.828Z,7.78
2022-08-19T23:34:47.097Z,7.63
2022-08-19T23:37:15.429Z,7.82
2022-08-19T23:39:44.683Z,8.45
2022-08-19T23:42:13.843Z,8.15
2022-08-19T23:44:52.319Z,7.85
2022-08-19T23:47:21.805Z,8.48
2022-08-19T23:49:51.699Z,7.70
2022-08-19T23:52:20.189Z,8.30
2022-08-19T23:54:48.515Z,7.85
2022-08-19T23:57:16.842Z,7.43
2022-08-19T23:59:46.177Z,8.10
